English version
lugares datos climáticos artículos

datos de Mairena del Aljarafe, Sevilla, España
Año Mes Dia Mostrar

  Fecha       hora        Temp.ext.    Hum.ext.  Dir.Viento   Vel.Viento  Presion al NM   T.int. Prec.hoy 

   20-10-2017    10:05      18.5º(+1.9)     87%         -         0.0 km/h    1020.2 hpa     26.5º    0.0 mm
   20-10-2017    10:00      18.6º(+2.0)     87%         -         0.0 km/h    1020.2 hpa     26.5º    0.0 mm
   20-10-2017    09:55      18.6º(+2.1)     87%         -         0.0 km/h    1020.2 hpa     26.6º    0.0 mm
   20-10-2017    09:50      18.4º(+1.9)     88%         -         0.0 km/h    1020.1 hpa     26.6º    0.0 mm
   20-10-2017    09:45      18.3º(+1.9)     88%         -         0.0 km/h    1020.1 hpa     26.6º    0.0 mm
   20-10-2017    09:40      18.2º(+1.8)     88%         -         0.0 km/h    1020.2 hpa     26.6º    0.0 mm
   20-10-2017    09:35      18.0º(+1.6)     88%         -         0.0 km/h    1020.0 hpa     26.6º    0.0 mm
   20-10-2017    09:30      17.8º(+1.5)     88%         -         0.0 km/h    1020.0 hpa     26.6º    0.0 mm
   20-10-2017    09:25      17.8º(----)     88%         -         0.0 km/h    1019.9 hpa     26.7º    0.0 mm
   20-10-2017    09:20      17.7º(----)     88%         -         0.0 km/h    1019.7 hpa     26.7º    0.0 mm
   20-10-2017    09:15        - º(----)      -%         -          -  km/h    1019.7 hpa     26.8º    0.0 mm
   20-10-2017    09:10        - º(----)      -%         -          -  km/h    1019.7 hpa     26.9º    0.0 mm
   20-10-2017    09:05        - º(----)      -%         -          -  km/h    1019.7 hpa     26.9º    0.0 mm
   20-10-2017    09:00        - º(----)      -%         -          -  km/h    1019.6 hpa     26.9º    0.0 mm
   20-10-2017    08:55        - º(----)      -%         -          -  km/h    1019.5 hpa     27.0º    0.0 mm
   20-10-2017    08:50        - º(----)      -%         -          -  km/h    1019.4 hpa     27.0º    0.0 mm
   20-10-2017    08:45        - º(----)      -%         -          -  km/h    1019.5 hpa     27.2º    0.0 mm
   20-10-2017    08:40        - º(----)      -%         -          -  km/h    1019.4 hpa     27.0º    0.0 mm
   20-10-2017    08:35        - º(----)      -%         -          -  km/h    1019.4 hpa     27.0º    0.0 mm
   20-10-2017    08:30        - º(----)      -%         -          -  km/h    1019.4 hpa     27.1º    0.0 mm
   20-10-2017    08:25        - º(----)      -%         -          -  km/h    1019.3 hpa     27.0º    0.0 mm
   20-10-2017    08:20        - º(----)      -%         -          -  km/h    1019.3 hpa     27.0º    0.0 mm
   20-10-2017    08:15        - º(----)      -%         -          -  km/h    1019.4 hpa     27.1º    0.0 mm
   20-10-2017    08:10        - º(----)      -%         -          -  km/h    1019.3 hpa     27.2º    0.0 mm
   20-10-2017    08:05        - º(----)      -%         -          -  km/h    1019.2 hpa     27.1º    0.0 mm
   20-10-2017    08:00        - º(----)      -%         -          -  km/h    1019.2 hpa     27.1º    0.0 mm
   20-10-2017    07:55        - º(----)      -%         -          -  km/h    1018.9 hpa     27.3º    0.0 mm
   20-10-2017    07:50      18.2º(+2.2)     85%         -          -  km/h    1018.9 hpa     27.4º    0.0 mm
   20-10-2017    07:45      18.2º(+2.2)     85%         -         0.0 km/h    1019.1 hpa     27.1º    0.0 mm
   20-10-2017    07:40      18.3º(+2.2)     85%         -         0.0 km/h    1019.1 hpa     27.1º    0.0 mm
   20-10-2017    07:35      18.3º(+2.3)     85%         -         0.0 km/h    1019.1 hpa     27.1º    0.0 mm
   20-10-2017    07:30      18.3º(+2.3)     85%         -         0.0 km/h    1019.1 hpa     27.1º    0.0 mm
   20-10-2017    07:25      18.3º(+2.3)     84%         -         0.0 km/h    1019.0 hpa     27.1º    0.0 mm
   20-10-2017    07:20      18.3º(+2.3)     84%         -         0.0 km/h    1018.9 hpa     27.0º    0.0 mm
   20-10-2017    07:15      18.3º(+2.3)     84%         -         0.0 km/h    1018.9 hpa     27.0º    0.0 mm
   20-10-2017    07:10      18.4º(+2.4)     84%         -         0.0 km/h    1018.7 hpa     27.0º    0.0 mm
   20-10-2017    07:05      18.4º(+2.5)     84%         -         0.0 km/h    1018.6 hpa     27.1º    0.0 mm
   20-10-2017    07:00      18.4º(+2.5)     83%         -         0.0 km/h    1018.4 hpa     27.1º    0.0 mm
   20-10-2017    06:55      18.6º(+2.8)     83%         -         0.0 km/h    1018.4 hpa     27.1º    0.0 mm
   20-10-2017    06:50      18.7º(+2.9)     83%         -         0.0 km/h    1018.3 hpa     27.1º    0.0 mm
   20-10-2017    06:45      18.7º(+2.9)     82%         -         0.0 km/h    1018.2 hpa     27.1º    0.0 mm
   20-10-2017    06:40      18.7º(+2.9)     82%         -         0.0 km/h    1018.3 hpa     27.1º    0.0 mm
   20-10-2017    06:35      18.7º(+3.0)     82%         -         0.0 km/h    1018.3 hpa     27.1º    0.0 mm
   20-10-2017    06:30      18.8º(+3.1)     82%         -         0.0 km/h    1018.3 hpa     27.1º    0.0 mm
   20-10-2017    06:25      18.8º(+3.1)     82%         -         0.0 km/h    1018.4 hpa     27.1º    0.0 mm
   20-10-2017    06:20      18.8º(+3.2)     81%         -         0.0 km/h    1018.4 hpa     27.1º    0.0 mm
   20-10-2017    06:15      18.9º(+3.3)     81%         -         0.0 km/h    1018.4 hpa     27.1º    0.0 mm
   20-10-2017    06:10      18.9º(+3.3)     81%         -         0.0 km/h    1018.3 hpa     27.1º    0.0 mm
   20-10-2017    06:05      18.9º(+3.3)     80%         -         0.0 km/h    1018.4 hpa     27.1º    0.0 mm
   20-10-2017    06:00      18.9º(+3.3)     80%         -         0.0 km/h    1018.4 hpa     27.1º    0.0 mm
   20-10-2017    05:55      18.9º(+3.3)     80%         -         0.0 km/h    1018.4 hpa     27.1º    0.0 mm
   20-10-2017    05:50      18.8º(+3.2)     80%         -         0.0 km/h    1018.4 hpa     27.1º    0.0 mm
   20-10-2017    05:45      18.8º(+3.2)     81%         -         0.0 km/h    1018.4 hpa     27.1º    0.0 mm
   20-10-2017    05:40      18.8º(+3.2)     81%         -         0.0 km/h    1018.4 hpa     27.1º    0.0 mm
   20-10-2017    05:35      18.7º(+3.1)     81%         -         0.0 km/h    1018.3 hpa     27.1º    0.0 mm
   20-10-2017    05:30      18.7º(+3.2)     82%         -         0.0 km/h    1018.3 hpa     27.1º    0.0 mm
   20-10-2017    05:25      18.7º(+3.1)     82%         -         0.0 km/h    1018.2 hpa     27.1º    0.0 mm
   20-10-2017    05:20      18.6º(+3.0)     82%         -         0.0 km/h    1018.3 hpa     27.1º    0.0 mm
   20-10-2017    05:15      18.5º(+2.9)     82%         -         0.0 km/h    1018.2 hpa     27.1º    0.0 mm
   20-10-2017    05:10      18.4º(+2.7)     82%         -         0.0 km/h    1018.3 hpa     27.1º    0.0 mm
   20-10-2017    05:05      18.4º(+2.8)     83%         -         0.0 km/h    1018.2 hpa     27.1º    0.0 mm
   20-10-2017    05:00      18.4º(+2.7)     82%         -         0.0 km/h    1018.3 hpa     27.1º    0.0 mm
   20-10-2017    04:55      18.4º(+2.7)     82%         -         0.0 km/h    1018.3 hpa     27.1º    0.0 mm
   20-10-2017    04:50      18.4º(+2.7)     82%         -         0.0 km/h    1018.4 hpa     27.1º    0.0 mm
   20-10-2017    04:45      18.4º(+2.8)     82%         -         0.0 km/h    1018.5 hpa     27.1º    0.0 mm
   20-10-2017    04:40      18.4º(+2.9)     83%         -         0.0 km/h    1018.5 hpa     27.1º    0.0 mm
   20-10-2017    04:35      18.3º(+2.8)     83%         -         0.0 km/h    1018.5 hpa     27.1º    0.0 mm
   20-10-2017    04:30      18.3º(+2.7)     83%         -         0.0 km/h    1018.5 hpa     27.1º    0.0 mm
   20-10-2017    04:25      18.2º(+2.6)     83%         -         0.0 km/h    1018.5 hpa     27.1º    0.0 mm
   20-10-2017    04:20      18.1º(+2.4)     83%         -         0.0 km/h    1018.5 hpa     27.1º    0.0 mm
   20-10-2017    04:15      18.0º(+2.3)     84%         -         0.0 km/h    1018.6 hpa     27.1º    0.0 mm
   20-10-2017    04:10      17.9º(+2.2)     84%         -         0.0 km/h    1018.5 hpa     27.1º    0.0 mm
   20-10-2017    04:05      17.9º(+2.2)     84%         -         0.0 km/h    1018.6 hpa     27.1º    0.0 mm
   20-10-2017    04:00      17.8º(+2.1)     84%         -         0.0 km/h    1018.7 hpa     27.1º    0.0 mm
   20-10-2017    03:55      17.8º(+2.0)     84%         -         0.0 km/h    1018.7 hpa     27.1º    0.0 mm
   20-10-2017    03:50      17.7º(+1.9)     84%         -         0.0 km/h    1018.7 hpa     27.1º    0.0 mm
   20-10-2017    03:45      17.6º(+1.7)     84%         -         0.0 km/h    1018.8 hpa     27.1º    0.0 mm
   20-10-2017    03:40      17.6º(+1.8)     84%         -         0.0 km/h    1018.8 hpa     27.1º    0.0 mm
   20-10-2017    03:35      17.6º(+1.8)     84%         -         0.0 km/h    1018.9 hpa     27.1º    0.0 mm
   20-10-2017    03:30      17.6º(+1.8)     84%         -         0.0 km/h    1018.8 hpa     27.1º    0.0 mm
   20-10-2017    03:25      17.7º(+2.0)     84%         -         0.0 km/h    1018.9 hpa     27.1º    0.0 mm
   20-10-2017    03:20      17.7º(+1.9)     84%         -         0.0 km/h    1018.9 hpa     27.2º    0.0 mm
   20-10-2017    03:15      17.7º(+1.8)     84%         -         0.0 km/h    1018.7 hpa     27.2º    0.0 mm
   20-10-2017    03:10      17.7º(+1.8)     83%         -         0.0 km/h    1018.9 hpa     27.2º    0.0 mm
   20-10-2017    03:05      17.7º(+1.7)     83%         -         0.0 km/h    1018.8 hpa     27.2º    0.0 mm
   20-10-2017    03:00      17.8º(+1.7)     83%         -         0.0 km/h    1018.7 hpa     27.2º    0.0 mm
   20-10-2017    02:55      17.8º(+1.7)     83%         -         0.0 km/h    1018.8 hpa     27.2º    0.0 mm
   20-10-2017    02:50      17.8º(+1.7)     83%         -         0.0 km/h    1018.7 hpa     27.2º    0.0 mm
   20-10-2017    02:45      17.8º(+1.7)     83%         -         0.0 km/h    1018.7 hpa     27.2º    0.0 mm
   20-10-2017    02:40      17.9º(+1.8)     83%         -         0.0 km/h    1018.8 hpa     27.2º    0.0 mm
   20-10-2017    02:35      17.9º(+1.7)     83%         -         0.0 km/h    1018.8 hpa     27.2º    0.0 mm
   20-10-2017    02:30      17.9º(+1.7)     83%         -         0.0 km/h    1018.8 hpa     27.2º    0.0 mm
   20-10-2017    02:25      17.9º(+1.7)     83%         -         0.0 km/h    1018.7 hpa     27.2º    0.0 mm
   20-10-2017    02:20      18.0º(+1.8)     83%         -         0.0 km/h    1018.7 hpa     27.2º    0.0 mm
   20-10-2017    02:15      18.0º(+1.8)     83%         -         0.0 km/h    1018.6 hpa     27.2º    0.0 mm
   20-10-2017    02:10      18.0º(+1.8)     83%         -         0.0 km/h    1018.6 hpa     27.2º    0.0 mm
   20-10-2017    02:05      18.0º(+1.7)     83%         -         0.0 km/h    1018.6 hpa     27.2º    0.0 mm
   20-10-2017    02:00      18.0º(+1.7)     83%         -         0.0 km/h    1018.6 hpa     27.2º    0.0 mm
   20-10-2017    01:55      18.0º(----)     83%         -         0.0 km/h    1018.6 hpa     27.2º    0.0 mm
   20-10-2017    01:50      18.0º(----)     83%         -         0.0 km/h    1018.6 hpa     27.2º    0.0 mm
   20-10-2017    01:45      18.0º(----)     82%         -         0.0 km/h    1018.5 hpa     27.2º    0.0 mm
   20-10-2017    01:40      18.1º(----)     82%         -         0.0 km/h    1018.5 hpa     27.2º    0.0 mm
   20-10-2017    01:35      18.2º(----)     82%         -         0.0 km/h    1018.6 hpa     27.2º    0.0 mm
   20-10-2017    01:30      18.2º(----)     81%         -         0.0 km/h    1018.5 hpa     27.2º    0.0 mm
   20-10-2017    01:25      18.3º(----)     81%         -         0.0 km/h    1018.5 hpa     27.2º    0.0 mm
   20-10-2017    01:20      18.3º(----)     81%         -         0.0 km/h    1018.5 hpa     27.2º    0.0 mm
   20-10-2017    01:15      18.3º(----)     81%         -         0.0 km/h    1018.6 hpa     27.2º    0.0 mm
   20-10-2017    01:10      18.3º(----)     81%         -         0.0 km/h    1018.6 hpa     27.2º    0.0 mm
   20-10-2017    01:05      18.4º(----)     81%         -         0.0 km/h    1018.4 hpa     27.2º    0.0 mm
   20-10-2017    01:00      18.4º(----)     81%         -         0.0 km/h    1018.5 hpa     27.2º    0.0 mm
   20-10-2017    00:55      18.3º(----)     81%         -         0.0 km/h    1018.4 hpa     27.2º    0.0 mm
   20-10-2017    00:50      18.3º(----)     81%         -         0.0 km/h    1018.4 hpa     27.2º    0.0 mm
   20-10-2017    00:45      18.3º(----)     81%         -         0.0 km/h    1018.3 hpa     27.2º    0.0 mm
   20-10-2017    00:40      18.3º(----)     81%         -         0.0 km/h    1018.4 hpa     27.2º    0.0 mm
   20-10-2017    00:35      18.3º(----)     81%         -         0.0 km/h    1018.3 hpa     27.2º    0.0 mm
   20-10-2017    00:30      18.3º(----)     81%         -         0.0 km/h    1018.2 hpa     27.2º    0.0 mm
   20-10-2017    00:25      18.4º(----)     81%         -         0.0 km/h    1018.1 hpa     27.2º    0.0 mm
   20-10-2017    00:20      18.4º(----)     80%         -         0.0 km/h    1018.2 hpa     27.2º    0.0 mm
   20-10-2017    00:15      18.5º(----)     80%         -         0.0 km/h    1018.1 hpa     27.2º    0.0 mm
   20-10-2017    00:10      18.6º(----)     80%         -         0.0 km/h    1018.1 hpa     27.2º    0.0 mm
   20-10-2017    00:05      18.6º(----)     80%         -         0.0 km/h    1018.1 hpa     27.2º    0.0 mm
   20-10-2017    00:00      18.7º(----)     80%         -         0.0 km/h    1018.1 hpa     27.2º    0.0 mm